Time;durP1;ratioP1;P1;durP2;ratioP2;P2;SDS_P1;SDS_P2;PMS_P1;PMS_P2;Temp;Humidity;BMP_temperature;BMP_pressure;BME280_temperature;BME280_humidity;BME280_pressure;Samples;Min_cycle;Max_cycle;Signal;HPM_P1;HPM_P2
2022/08/28 00:03:53;;;;;;;9.65;5.97;;;;;;;25.34;47.23;100714.13;5067349;27;20407;-60
2022/08/28 00:07:30;;;;;;;8.95;6.75;;;;;;;25.38;47.12;100704.34;5106672;27;20453;-59
2022/08/28 00:09:55;;;;;;;9.43;6.40;;;;;;;25.34;47.26;100695.94;5107600;28;20396;-59
2022/08/28 00:12:21;;;;;;;10.90;6.33;;;;;;;25.36;47.10;100703.81;5107806;28;20382;-60
2022/08/28 00:14:47;;;;;;;9.73;5.53;;;;;;;25.37;47.24;100710.84;5107669;28;20372;-59
2022/08/28 00:17:12;;;;;;;9.63;6.13;;;;;;;25.37;47.30;100716.28;5107497;28;20373;-60
2022/08/28 00:19:38;;;;;;;8.03;5.97;;;;;;;25.29;47.58;100714.91;5107291;28;20395;-60
2022/08/28 00:22:03;;;;;;;13.25;6.60;;;;;;;25.25;47.61;100705.69;5107394;28;20438;-60
2022/08/28 00:24:29;;;;;;;10.37;6.53;;;;;;;25.27;47.54;100711.66;5106139;28;20388;-60
2022/08/28 00:29:39;;;;;;;10.00;6.20;;;;;;;25.30;47.75;100713.84;5106966;28;20905;-60
2022/08/28 00:32:04;;;;;;;11.47;6.47;;;;;;;25.31;48.08;100710.03;5107005;28;20365;-60
2022/08/28 00:34:31;;;;;;;12.88;6.40;;;;;;;25.35;47.89;100713.84;5107206;28;20878;-60
2022/08/28 00:40:07;;;;;;;17.02;7.10;;;;;;;25.32;48.33;100713.56;5106675;27;20408;-60
2022/08/28 00:44:45;;;;;;;12.25;6.57;;;;;;;25.17;48.60;100712.44;5086951;27;2287238;-60
2022/08/28 00:47:11;;;;;;;14.40;7.20;;;;;;;25.10;48.97;100719.16;5148329;27;20393;-59
2022/08/28 00:49:46;;;;;;;11.18;7.35;;;;;;;25.12;49.16;100712.41;5148321;27;20424;-59
2022/08/28 00:52:14;;;;;;;15.68;8.05;;;;;;;25.15;49.16;100720.00;5148930;27;20385;-59
2022/08/28 00:54:51;;;;;;;14.70;7.70;;;;;;;25.21;49.12;100712.72;5130177;27;20425;-60
2022/08/28 00:57:25;;;;;;;15.43;7.43;;;;;;;25.28;48.97;100709.75;5148322;27;20385;-60
2022/08/28 00:59:51;;;;;;;13.60;7.37;;;;;;;25.24;49.01;100709.47;5148574;27;20869;-60
2022/08/28 01:02:17;;;;;;;12.82;7.32;;;;;;;25.20;49.24;100705.63;5148508;27;20460;-59
2022/08/28 01:04:43;;;;;;;13.25;7.22;;;;;;;25.26;49.33;100701.88;5129915;27;20424;-60
2022/08/28 01:08:00;;;;;;;15.05;7.22;;;;;;;25.24;49.25;100706.75;5095013;27;2068267;-61
2022/08/28 01:10:29;;;;;;;11.25;6.90;;;;;;;25.27;49.20;100710.84;5148735;27;20429;-61
2022/08/28 01:12:57;;;;;;;15.10;7.20;;;;;;;25.27;49.03;100705.41;5148727;27;20463;-60
2022/08/28 01:15:58;;;;;;;12.23;7.20;;;;;;;25.23;49.07;100702.41;5065943;28;20978;-60
2022/08/28 01:18:56;;;;;;;13.77;7.15;;;;;;;25.27;49.25;100711.66;5066064;28;20429;-60
2022/08/28 01:22:29;;;;;;;14.10;7.65;;;;;;;25.24;48.99;100704.03;5106773;27;20422;-60
2022/08/28 01:24:57;;;;;;;15.23;7.35;;;;;;;25.24;48.89;100706.75;5107492;28;20450;-60
2022/08/28 01:27:23;;;;;;;11.75;7.10;;;;;;;25.22;48.69;100705.38;5107276;28;20407;-60
2022/08/28 01:29:49;;;;;;;12.87;7.10;;;;;;;25.21;48.84;100709.16;5107558;28;20462;-60
2022/08/28 01:32:39;;;;;;;11.52;6.95;;;;;;;25.18;48.46;100710.53;5106260;28;20412;-61
2022/08/28 01:37:18;;;;;;;10.43;6.65;;;;;;;25.12;48.37;100701.56;5066163;28;20407;-60
2022/08/28 01:39:43;;;;;;;12.40;6.30;;;;;;;25.11;48.35;100715.38;5066871;28;20445;-60
2022/08/28 01:42:09;;;;;;;15.40;6.60;;;;;;;25.08;48.39;100716.72;5066790;28;20380;-60
2022/08/28 01:44:34;;;;;;;11.68;6.90;;;;;;;24.98;48.52;100703.16;5067123;28;20419;-60
2022/08/28 01:47:00;;;;;;;17.10;6.90;;;;;;;24.97;48.51;100709.63;5066978;28;20384;-60
2022/08/28 01:49:28;;;;;;;9.65;6.38;;;;;;;24.93;48.60;100705.84;5066964;28;20372;-59
2022/08/28 01:51:54;;;;;;;11.82;6.63;;;;;;;24.89;48.63;100699.31;5066569;28;20848;-60
2022/08/28 01:54:19;;;;;;;11.48;6.82;;;;;;;24.91;48.83;100705.28;5067149;28;20931;-60
2022/08/28 01:56:46;;;;;;;12.30;6.83;;;;;;;24.89;48.84;100710.16;5066758;28;20455;-61
2022/08/28 02:01:39;;;;;;;14.90;6.75;;;;;;;24.78;48.87;100704.69;5113774;27;20465;-60
2022/08/28 02:04:04;;;;;;;11.05;6.32;;;;;;;24.73;48.93;100701.97;5066828;28;20396;-62
2022/08/28 02:06:31;;;;;;;12.50;6.50;;;;;;;24.74;49.02;100705.47;5067203;28;20391;-59
2022/08/28 02:08:58;;;;;;;9.52;6.72;;;;;;;24.68;49.01;100707.38;5066778;28;20453;-60
2022/08/28 02:11:24;;;;;;;9.48;7.15;;;;;;;24.64;49.17;100714.41;5066791;28;20376;-60
2022/08/28 02:13:51;;;;;;;8.60;6.50;;;;;;;24.65;49.13;100712.50;5066634;28;20812;-60
2022/08/28 02:16:17;;;;;;;11.75;6.50;;;;;;;24.61;49.25;100720.34;5066600;28;20398;-59
2022/08/28 02:18:42;;;;;;;14.13;7.17;;;;;;;24.58;49.16;100721.69;5066664;28;20882;-60
2022/08/28 02:21:09;;;;;;;9.55;6.28;;;;;;;24.55;49.08;100716.78;5066810;28;20415;-60
2022/08/28 02:23:40;;;;;;;12.70;6.50;;;;;;;24.52;49.08;100714.56;5066796;28;20390;-60
2022/08/28 02:26:06;;;;;;;11.25;6.93;;;;;;;24.50;49.07;100724.84;5066711;28;21018;-59
2022/08/28 02:28:31;;;;;;;11.23;6.80;;;;;;;24.47;49.46;100725.41;5066371;28;20376;-60
2022/08/28 02:30:57;;;;;;;12.48;6.72;;;;;;;24.46;49.33;100722.97;5066439;28;20398;-59
2022/08/28 02:33:22;;;;;;;10.77;6.70;;;;;;;24.40;49.41;100722.91;5066593;28;20425;-59
2022/08/28 02:35:48;;;;;;;11.27;6.87;;;;;;;24.38;49.47;100726.94;5066186;28;20376;-59
2022/08/28 02:38:16;;;;;;;11.05;6.50;;;;;;;24.39;49.72;100720.47;5066137;28;20890;-59
2022/08/28 02:40:41;;;;;;;10.70;6.70;;;;;;;24.36;49.80;100723.69;5066020;28;20549;-59
2022/08/28 02:43:07;;;;;;;13.57;7.00;;;;;;;24.32;49.82;100714.47;5066385;28;20852;-59
2022/08/28 02:45:33;;;;;;;13.63;7.93;;;;;;;24.33;49.75;100721.53;5066024;28;20380;-59
2022/08/28 02:48:00;;;;;;;13.00;7.20;;;;;;;24.27;49.72;100722.56;5066269;28;20493;-59
2022/08/28 02:50:26;;;;;;;12.30;6.95;;;;;;;24.24;49.98;100721.19;5066173;28;20748;-59
2022/08/28 02:52:52;;;;;;;13.82;8.05;;;;;;;24.25;50.20;100725.53;5065827;28;20510;-58
2022/08/28 02:55:18;;;;;;;10.65;7.05;;;;;;;24.27;50.07;100731.50;5066361;28;20496;-59
2022/08/28 02:57:46;;;;;;;13.90;7.80;;;;;;;24.24;50.23;100722.00;5066022;28;20960;-61
2022/08/28 03:00:16;;;;;;;9.38;6.80;;;;;;;24.23;50.23;100719.56;5065582;28;20460;-60
2022/08/28 03:04:16;;;;;;;13.98;6.80;;;;;;;24.16;50.40;100722.47;5092574;27;2138281;-60
2022/08/28 03:06:42;;;;;;;9.20;6.80;;;;;;;24.09;50.61;100723.78;5149087;27;20389;-59
2022/08/28 03:09:08;;;;;;;11.98;6.82;;;;;;;24.07;50.62;100734.06;5148783;27;20412;-59
2022/08/28 03:11:33;;;;;;;9.67;6.60;;;;;;;24.01;50.50;100720.50;5148716;27;20430;-59
2022/08/28 03:14:02;;;;;;;11.82;6.82;;;;;;;24.01;50.91;100733.22;5148682;27;20401;-59
2022/08/28 03:16:28;;;;;;;10.10;6.57;;;;;;;23.94;50.72;100724.50;5148677;27;20366;-59
2022/08/28 03:18:54;;;;;;;10.88;7.05;;;;;;;23.93;51.04;100733.69;5148623;27;20875;-59
2022/08/28 03:21:20;;;;;;;10.27;6.85;;;;;;;23.93;50.96;100741.81;5148518;27;20890;-59
2022/08/28 03:23:46;;;;;;;12.13;7.20;;;;;;;23.93;50.83;100747.22;5148367;27;20432;-59
2022/08/28 03:26:17;;;;;;;11.40;7.07;;;;;;;23.91;50.84;100752.09;5148023;27;20479;-59
2022/08/28 03:28:51;;;;;;;11.88;7.30;;;;;;;23.88;50.85;100749.88;5147941;27;20385;-60
2022/08/28 03:31:22;;;;;;;12.30;7.28;;;;;;;23.87;51.29;100748.28;5129478;27;20388;-59
2022/08/28 03:33:49;;;;;;;12.40;7.22;;;;;;;23.84;51.00;100746.88;5148208;27;20370;-59
2022/08/28 03:36:20;;;;;;;10.55;7.10;;;;;;;23.84;51.39;100763.97;5148273;27;20373;-61
2022/08/28 03:38:46;;;;;;;15.02;7.03;;;;;;;23.88;50.92;100768.84;5130313;27;20412;-59
2022/08/28 03:41:16;;;;;;;12.32;6.90;;;;;;;23.84;51.14;100771.25;5148321;27;20377;-59
2022/08/28 03:43:42;;;;;;;12.48;7.50;;;;;;;23.88;50.91;100777.78;5147772;27;20506;-59
2022/08/28 03:46:13;;;;;;;9.83;6.70;;;;;;;23.88;50.81;100780.50;5148105;27;20545;-58
2022/08/28 03:48:39;;;;;;;14.15;7.20;;;;;;;23.85;50.77;100776.41;5147531;27;20377;-60
2022/08/28 03:51:10;;;;;;;11.43;7.70;;;;;;;23.87;50.88;100784.28;5147648;27;20721;-60
2022/08/28 03:53:36;;;;;;;9.52;7.18;;;;;;;23.87;50.79;100789.69;5147813;27;20380;-60
2022/08/28 03:56:09;;;;;;;12.40;7.28;;;;;;;23.91;50.62;100798.09;5147863;27;20393;-59
2022/08/28 03:58:36;;;;;;;12.43;7.88;;;;;;;23.87;50.62;100786.16;5147779;27;20420;-59
2022/08/28 04:01:02;;;;;;;12.93;8.00;;;;;;;23.93;50.81;100795.97;5147824;27;20381;-61
2022/08/28 04:03:28;;;;;;;11.13;7.17;;;;;;;23.98;50.48;100804.13;5128796;27;20450;-60
2022/08/28 04:05:53;;;;;;;11.82;7.43;;;;;;;24.01;50.59;100801.72;5147591;27;20420;-60
2022/08/28 04:08:21;;;;;;;13.43;7.93;;;;;;;24.09;50.31;100807.75;5147462;27;20374;-60
2022/08/28 04:10:47;;;;;;;11.55;7.30;;;;;;;24.16;50.12;100797.50;5147539;27;20377;-59
2022/08/28 04:13:15;;;;;;;13.05;6.97;;;;;;;24.17;50.18;100805.38;5147867;27;20401;-60
2022/08/28 04:15:41;;;;;;;14.85;7.25;;;;;;;24.18;50.17;100803.47;5133279;27;20370;-60
2022/08/28 04:18:10;;;;;;;12.67;7.53;;;;;;;24.26;50.01;100816.56;5133965;27;20374;-60
2022/08/28 04:21:12;;;;;;;13.73;7.70;;;;;;;24.35;49.61;100809.59;5087370;27;2067743;-63
2022/08/28 04:23:39;;;;;;;13.10;7.45;;;;;;;24.54;49.49;100807.31;5146616;27;20756;-60
2022/08/28 04:26:06;;;;;;;14.67;7.53;;;;;;;24.66;49.02;100807.09;5133133;27;20393;-61
2022/08/28 04:28:32;;;;;;;11.77;7.17;;;;;;;24.77;48.58;100810.69;5144232;27;20756;-60
2022/08/28 04:30:58;;;;;;;11.10;7.07;;;;;;;24.98;48.09;100820.56;5113274;27;20387;-60
2022/08/28 04:33:25;;;;;;;12.60;7.20;;;;;;;25.12;47.61;100818.19;5138701;27;20432;-60
2022/08/28 04:35:51;;;;;;;11.38;6.85;;;;;;;25.41;47.17;100820.50;5140998;27;20420;-62
2022/08/28 04:38:17;;;;;;;12.07;6.47;;;;;;;25.71;46.29;100813.50;5146373;27;20389;-59
2022/08/28 04:40:43;;;;;;;14.05;6.30;;;;;;;26.02;45.52;100816.28;5114700;27;20412;-60
2022/08/28 04:43:09;;;;;;;9.40;6.32;;;;;;;26.23;44.73;100820.63;5140401;27;20447;-60
2022/08/28 04:45:39;;;;;;;13.23;6.72;;;;;;;26.48;44.15;100819.78;5134545;27;20461;-61
2022/08/28 04:48:05;;;;;;;10.77;6.73;;;;;;;26.81;43.50;100827.66;5128397;27;20489;-59
2022/08/28 04:50:30;;;;;;;11.57;6.72;;;;;;;27.14;42.54;100819.94;5127698;27;20553;-60
2022/08/28 04:52:56;;;;;;;12.83;7.10;;;;;;;27.44;42.07;100816.25;5110489;28;20494;-60
2022/08/28 04:55:23;;;;;;;12.45;7.72;;;;;;;27.72;41.54;100817.47;5128622;27;20487;-60
2022/08/28 04:57:49;;;;;;;9.80;6.30;;;;;;;27.97;40.70;100808.31;5127735;27;20383;-60
2022/08/28 05:00:14;;;;;;;15.50;6.95;;;;;;;28.28;40.37;100809.97;5128035;27;20460;-61
2022/08/28 05:02:40;;;;;;;13.55;7.38;;;;;;;28.58;39.70;100814.34;5128234;27;20917;-58
2022/08/28 05:05:06;;;;;;;9.27;6.30;;;;;;;28.90;39.05;100819.19;5127556;27;20389;-61
2022/08/28 05:07:32;;;;;;;14.75;7.20;;;;;;;29.17;38.61;100818.59;5127803;27;20439;-60
2022/08/28 05:09:58;;;;;;;16.10;9.13;;;;;;;29.59;37.98;100818.84;5125387;27;20379;-60
2022/08/28 05:12:24;;;;;;;14.52;7.50;;;;;;;30.03;37.03;100822.31;5126632;27;20379;-60
2022/08/28 05:14:50;;;;;;;11.63;6.50;;;;;;;30.51;36.31;100824.78;5131308;27;20389;-60
2022/08/28 05:17:15;;;;;;;13.10;6.45;;;;;;;30.91;35.49;100810.63;5126472;27;20387;-60
2022/08/28 05:19:42;;;;;;;14.18;6.85;;;;;;;31.35;34.80;100815.47;5129168;27;20411;-59
2022/08/28 05:22:09;;;;;;;12.63;6.43;;;;;;;32.29;33.39;100818.47;5126537;27;20422;-62
2022/08/28 05:24:36;;;;;;;15.23;6.70;;;;;;;34.15;30.55;100822.09;5127392;27;20391;-60
2022/08/28 05:27:02;;;;;;;11.25;7.00;;;;;;;35.87;27.70;100806.91;5127146;27;20390;-59
2022/08/28 05:29:27;;;;;;;13.40;6.80;;;;;;;37.29;26.05;100811.16;5126327;27;20391;-59
2022/08/28 05:31:53;;;;;;;14.60;7.30;;;;;;;38.42;24.54;100806.38;5128961;27;20896;-60
2022/08/28 05:34:19;;;;;;;13.60;6.70;;;;;;;39.29;23.54;100808.38;5131635;27;20390;-59
2022/08/28 05:36:45;;;;;;;11.05;6.60;;;;;;;39.74;22.90;100809.72;5128894;27;20391;-60
2022/08/28 05:39:11;;;;;;;11.35;6.75;;;;;;;40.44;21.99;100816.97;5119509;27;20410;-61
2022/08/28 05:41:40;;;;;;;12.80;7.93;;;;;;;40.84;21.38;100810.06;5122319;27;20474;-60
2022/08/28 05:44:09;;;;;;;13.70;7.63;;;;;;;41.26;20.83;100805.50;5112534;27;20747;-60
2022/08/28 05:46:38;;;;;;;11.43;6.55;;;;;;;41.81;20.40;100796.59;5129215;27;20382;-60
2022/08/28 05:49:06;;;;;;;12.38;6.30;;;;;;;42.41;19.76;100809.50;5127214;27;21002;-61
2022/08/28 05:51:33;;;;;;;12.68;6.25;;;;;;;42.97;19.07;100801.94;5114686;27;20417;-59
2022/08/28 05:54:00;;;;;;;10.90;6.03;;;;;;;43.34;18.68;100803.72;5112001;28;20390;-60
2022/08/28 05:56:29;;;;;;;11.98;5.90;;;;;;;43.64;18.87;100806.19;5112007;28;20444;-60
2022/08/28 05:58:57;;;;;;;10.05;5.45;;;;;;;43.90;18.21;100798.69;5128340;27;20387;-64
2022/08/28 06:01:29;;;;;;;11.13;5.95;;;;;;;44.19;17.91;100812.69;5113645;27;20387;-60
2022/08/28 06:04:00;;;;;;;6.80;5.10;;;;;;;44.52;17.87;100813.50;5125159;27;20911;-60
2022/08/28 06:06:28;;;;;;;9.57;5.32;;;;;;;44.56;17.69;100815.09;5115056;27;21624;-60
2022/08/28 06:08:58;;;;;;;11.73;5.60;;;;;;;45.15;17.43;100808.19;5116976;27;20386;-60
2022/08/28 06:11:24;;;;;;;11.27;5.40;;;;;;;45.37;17.15;100815.28;5123498;27;20404;-60
2022/08/28 06:13:49;;;;;;;10.48;5.25;;;;;;;45.68;16.53;100814.72;5110969;27;20387;-60
2022/08/28 06:16:15;;;;;;;12.02;5.50;;;;;;;46.10;16.24;100816.50;5105933;27;20474;-61
2022/08/28 06:18:40;;;;;;;13.23;5.60;;;;;;;46.79;15.83;100822.25;5112977;27;20391;-60
2022/08/28 06:21:06;;;;;;;10.07;5.70;;;;;;;47.26;15.34;100818.94;5102907;27;20407;-60
2022/08/28 06:23:32;;;;;;;10.47;5.10;;;;;;;47.79;15.32;100814.59;5095365;27;20389;-63
2022/08/28 06:25:58;;;;;;;10.23;5.10;;;;;;;48.15;14.45;100805.59;5110155;27;20427;-61
2022/08/28 06:28:26;;;;;;;9.77;5.07;;;;;;;48.66;14.28;100811.16;5107333;27;20419;-61
2022/08/28 06:30:53;;;;;;;12.32;5.55;;;;;;;48.93;13.71;100807.41;5107275;27;20484;-60
2022/08/28 06:33:22;;;;;;;12.75;5.40;;;;;;;49.29;13.67;100809.47;5109407;27;20378;-61
2022/08/28 06:35:51;;;;;;;13.35;5.40;;;;;;;49.73;13.07;100808.09;5111619;27;20398;-61
2022/08/28 06:38:17;;;;;;;9.00;5.25;;;;;;;50.16;13.12;100814.75;5110428;27;20746;-61
2022/08/28 06:40:46;;;;;;;9.88;5.50;;;;;;;50.49;12.90;100809.84;5106846;27;20416;-61
2022/08/28 06:43:15;;;;;;;8.63;5.57;;;;;;;50.81;12.69;100808.13;5107293;28;20483;-60
2022/08/28 06:45:44;;;;;;;9.15;5.43;;;;;;;51.05;12.40;100810.69;5107996;27;20382;-62
2022/08/28 06:48:11;;;;;;;10.43;5.13;;;;;;;51.36;12.08;100811.00;5107298;27;20387;-62
2022/08/28 06:50:39;;;;;;;10.30;5.32;;;;;;;51.69;11.66;100812.84;5107117;27;20383;-61
2022/08/28 06:53:09;;;;;;;10.80;5.60;;;;;;;51.58;11.47;100808.31;5106350;27;20387;-61
2022/08/28 06:55:36;;;;;;;14.15;5.43;;;;;;;51.75;11.27;100803.31;5106994;27;20422;-61
2022/08/28 06:58:03;;;;;;;14.93;6.10;;;;;;;52.24;11.06;100801.31;5110768;27;20388;-60
2022/08/28 07:00:28;;;;;;;11.27;6.03;;;;;;;52.49;10.93;100804.03;5104241;28;20412;-61
2022/08/28 07:02:54;;;;;;;12.98;6.07;;;;;;;52.77;10.78;100803.47;5113341;27;20446;-61
2022/08/28 07:05:19;;;;;;;11.80;5.20;;;;;;;52.46;10.66;100793.66;5097691;27;20389;-61
2022/08/28 07:07:45;;;;;;;9.43;5.50;;;;;;;52.50;10.90;100799.19;5099653;27;20420;-62
2022/08/28 07:10:10;;;;;;;14.67;5.03;;;;;;;52.91;10.34;100791.63;5092919;28;20393;-62
2022/08/28 07:12:36;;;;;;;10.82;5.10;;;;;;;53.30;10.31;100795.78;5106616;27;20392;-62
2022/08/28 07:15:03;;;;;;;12.60;5.17;;;;;;;52.95;10.56;100786.63;5108165;27;20472;-60
2022/08/28 07:17:29;;;;;;;10.25;5.22;;;;;;;52.00;10.85;100799.66;5105589;27;20451;-61
2022/08/28 07:19:55;;;;;;;10.75;5.28;;;;;;;50.56;11.88;100800.38;5097966;28;20480;-60
2022/08/28 07:22:21;;;;;;;8.70;5.25;;;;;;;49.97;12.79;100799.47;5100274;27;20427;-63
2022/08/28 07:24:47;;;;;;;10.13;5.68;;;;;;;49.33;12.73;100796.91;5106247;27;20403;-60
2022/08/28 07:27:13;;;;;;;9.82;5.43;;;;;;;48.29;13.90;100798.94;5108084;28;20946;-64
2022/08/28 07:29:38;;;;;;;13.07;5.65;;;;;;;46.82;14.97;100801.78;5107920;28;20384;-60
2022/08/28 07:32:04;;;;;;;11.67;5.33;;;;;;;44.98;16.44;100796.63;5102760;28;20386;-61
2022/08/28 07:34:29;;;;;;;11.90;5.30;;;;;;;43.99;17.11;100807.47;5107673;28;20387;-61
2022/08/28 07:36:57;;;;;;;12.60;5.07;;;;;;;42.89;18.40;100805.84;5105221;27;20399;-62
2022/08/28 07:39:22;;;;;;;14.13;5.53;;;;;;;42.33;19.27;100800.25;5104035;28;20416;-63
2022/08/28 07:41:49;;;;;;;9.70;5.10;;;;;;;42.00;19.86;100812.28;5102016;28;20413;-61
2022/08/28 07:47:02;;;;;;;16.27;6.07;;;;;;;40.28;21.77;100811.53;5110812;27;20462;-63
2022/08/28 07:49:30;;;;;;;10.18;5.90;;;;;;;39.19;22.96;100818.91;5120808;27;20395;-62
2022/08/28 07:51:56;;;;;;;12.30;5.93;;;;;;;38.48;23.82;100808.88;5108199;27;20380;-60
2022/08/28 07:54:22;;;;;;;11.43;5.67;;;;;;;38.23;24.42;100809.03;5112200;27;20772;-63
2022/08/28 07:56:48;;;;;;;12.67;5.93;;;;;;;37.80;25.34;100821.75;5108883;27;20406;-61
2022/08/28 07:59:15;;;;;;;12.67;6.17;;;;;;;37.04;26.11;100815.91;5113436;27;20413;-62
2022/08/28 08:01:43;;;;;;;10.95;6.03;;;;;;;36.46;26.81;100813.25;5118927;27;20417;-62
2022/08/28 08:04:14;;;;;;;13.57;6.07;;;;;;;36.14;27.38;100815.69;5097641;28;20423;-61
2022/08/28 08:06:43;;;;;;;11.77;5.85;;;;;;;35.99;27.71;100817.94;5126210;27;20390;-61
2022/08/28 08:09:11;;;;;;;13.30;6.20;;;;;;;35.81;28.19;100815.72;5113678;27;20386;-61
2022/08/28 08:11:38;;;;;;;11.80;6.18;;;;;;;35.73;28.41;100812.72;5120058;27;20487;-62
2022/08/28 08:14:04;;;;;;;11.90;6.18;;;;;;;35.74;28.52;100816.25;5093943;28;20389;-63
2022/08/28 08:16:33;;;;;;;13.40;6.30;;;;;;;35.46;29.06;100816.00;5111020;28;20380;-65
2022/08/28 08:18:59;;;;;;;13.75;6.85;;;;;;;35.33;29.06;100812.34;5109617;28;20385;-62
2022/08/28 08:21:26;;;;;;;12.23;6.65;;;;;;;35.10;29.67;100817.38;5125197;28;20388;-61
2022/08/28 08:23:52;;;;;;;13.43;6.43;;;;;;;34.93;29.95;100810.00;5118228;28;20881;-62
2022/08/28 08:26:21;;;;;;;11.90;6.03;;;;;;;35.01;29.85;100812.72;5114194;28;20398;-61
2022/08/28 08:28:49;;;;;;;17.23;6.50;;;;;;;35.11;29.60;100813.47;5125906;28;20481;-60
2022/08/28 08:31:20;;;;;;;21.03;6.53;;;;;;;34.88;29.84;100818.44;5114468;28;20432;-61
2022/08/28 08:33:49;;;;;;;15.27;6.67;;;;;;;34.73;30.10;100817.06;5113520;28;20395;-61
2022/08/28 08:36:17;;;;;;;13.68;6.53;;;;;;;34.69;30.31;100822.44;5111082;28;20470;-62
2022/08/28 08:38:43;;;;;;;10.25;6.65;;;;;;;34.74;30.09;100816.75;5126006;28;20789;-61
2022/08/28 08:41:32;;;;;;;15.30;6.78;;;;;;;34.82;30.31;100812.34;5110267;28;20407;-61
2022/08/28 08:44:22;;;;;;;13.45;6.45;;;;;;;34.80;30.53;100818.16;5094716;28;21578;-62
2022/08/28 08:47:02;;;;;;;14.45;6.40;;;;;;;34.70;30.31;100821.31;5112081;28;20395;-61
2022/08/28 08:49:33;;;;;;;17.63;6.10;;;;;;;34.69;30.78;100825.19;5128505;28;20385;-63
2022/08/28 08:52:11;;;;;;;15.27;6.37;;;;;;;34.57;30.60;100820.34;5128640;28;20397;-61
2022/08/28 08:54:41;;;;;;;14.70;6.70;;;;;;;34.18;31.11;100822.28;5113400;28;20863;-63
2022/08/28 08:57:11;;;;;;;13.82;6.40;;;;;;;34.01;31.63;100819.53;5096791;28;20393;-61
2022/08/28 08:59:38;;;;;;;12.68;6.55;;;;;;;33.94;31.69;100816.47;5121950;28;20536;-62
2022/08/28 09:02:17;;;;;;;14.50;7.00;;;;;;;34.06;31.87;100822.91;5121137;28;20393;-62
2022/08/28 09:04:50;;;;;;;13.02;6.47;;;;;;;33.96;31.63;100817.78;5128003;28;20386;-61
2022/08/28 09:07:20;;;;;;;11.77;6.68;;;;;;;33.83;31.38;100814.03;5116995;27;20431;-60
2022/08/28 09:09:53;;;;;;;11.80;6.20;;;;;;;33.83;31.89;100814.03;5124695;27;20387;-63
2022/08/28 09:12:34;;;;;;;13.32;6.13;;;;;;;33.84;31.64;100821.16;5127066;27;20418;-61
2022/08/28 09:15:16;;;;;;;16.63;6.23;;;;;;;33.75;31.72;100823.13;5117710;27;20425;-64
2022/08/28 09:17:53;;;;;;;13.63;6.13;;;;;;;33.79;31.64;100817.78;5118855;27;20905;-61
2022/08/28 09:20:26;;;;;;;13.55;6.22;;;;;;;33.67;32.01;100821.16;5118222;27;20441;-63
2022/08/28 09:22:53;;;;;;;15.80;6.05;;;;;;;33.66;31.97;100816.81;5127138;27;20389;-61
2022/08/28 09:25:51;;;;;;;13.05;6.28;;;;;;;33.63;31.74;100820.19;5118156;27;21558;-60
2022/08/28 09:28:17;;;;;;;10.65;5.80;;;;;;;33.49;32.35;100812.91;5128690;27;20397;-60
2022/08/28 09:30:50;;;;;;;13.85;5.97;;;;;;;33.43;32.14;100810.63;5118154;27;20477;-61
2022/08/28 09:33:46;;;;;;;14.25;5.63;;;;;;;33.37;31.90;100811.91;5112936;28;20376;-61
2022/08/28 09:36:30;;;;;;;14.52;5.85;;;;;;;33.36;31.74;100808.38;5111952;28;20402;-61
2022/08/28 09:39:16;;;;;;;12.43;5.55;;;;;;;33.22;31.61;100814.00;5112873;28;20407;-60
2022/08/28 09:44:53;;;;;;;15.80;6.07;;;;;;;33.01;31.96;100808.28;5113074;28;20433;-62
2022/08/28 09:47:53;;;;;;;18.13;6.07;;;;;;;33.08;31.66;100807.81;5112837;28;20386;-61
2022/08/28 09:50:37;;;;;;;16.25;5.90;;;;;;;33.12;32.05;100806.88;5106965;28;20400;-62
2022/08/28 09:53:09;;;;;;;14.10;5.85;;;;;;;33.08;32.46;100797.66;5112889;28;20380;-63
2022/08/28 09:55:59;;;;;;;13.23;5.40;;;;;;;33.09;32.18;100806.69;5112480;28;20378;-62
2022/08/28 09:58:53;;;;;;;13.88;5.90;;;;;;;33.08;32.03;100805.06;5112751;28;20810;-62
2022/08/28 10:01:39;;;;;;;10.38;5.07;;;;;;;33.02;32.15;100809.88;5112496;28;20895;-62
2022/08/28 10:04:30;;;;;;;13.73;5.45;;;;;;;33.16;31.56;100798.00;5112285;28;20380;-62
2022/08/28 10:07:05;;;;;;;12.27;5.40;;;;;;;33.16;31.22;100790.56;5112636;28;20380;-61
2022/08/28 10:09:46;;;;;;;11.52;5.53;;;;;;;33.22;31.16;100797.50;5112589;28;20457;-61
2022/08/28 10:12:34;;;;;;;10.80;5.22;;;;;;;33.13;31.64;100789.28;5112420;28;20379;-61
2022/08/28 10:15:15;;;;;;;7.93;5.43;;;;;;;33.11;31.81;100783.25;5112152;28;20386;-61
2022/08/28 10:17:47;;;;;;;8.65;5.10;;;;;;;33.18;31.13;100787.50;5111951;28;20487;-62
2022/08/28 10:20:18;;;;;;;10.02;5.38;;;;;;;33.22;30.62;100780.22;5112527;28;20447;-61
2022/08/28 10:23:29;;;;;;;11.68;5.28;;;;;;;33.22;31.35;100793.97;5111974;28;20379;-61
2022/08/28 10:26:26;;;;;;;11.63;5.22;;;;;;;33.22;32.14;100785.72;5052872;28;20386;-60
2022/08/28 10:29:20;;;;;;;12.77;5.28;;;;;;;33.30;31.61;100779.44;5052976;28;20879;-59
2022/08/28 10:31:48;;;;;;;15.85;4.95;;;;;;;33.27;31.04;100774.59;5091639;28;20427;-60
2022/08/28 10:34:45;;;;;;;10.73;5.47;;;;;;;33.33;30.88;100782.34;5091194;28;20382;-61
2022/08/28 10:37:29;;;;;;;12.95;5.20;;;;;;;33.33;31.01;100774.09;5090685;28;20755;-62
2022/08/28 10:39:58;;;;;;;14.05;5.13;;;;;;;33.39;30.80;100777.50;5090046;28;20417;-60
2022/08/28 10:42:37;;;;;;;9.38;4.85;;;;;;;33.37;30.21;100768.78;5091497;28;20389;-60
2022/08/28 10:45:14;;;;;;;12.52;5.30;;;;;;;33.45;30.51;100773.44;5091460;28;20381;-69
2022/08/28 10:47:44;;;;;;;12.77;5.20;;;;;;;33.51;30.05;100769.41;5091425;28;20461;-60
2022/08/28 10:50:27;;;;;;;11.60;4.60;;;;;;;33.46;30.01;100766.03;5091249;28;20389;-60
2022/08/28 10:53:00;;;;;;;13.07;5.07;;;;;;;33.46;29.92;100769.59;5091127;28;20377;-61
2022/08/28 10:55:34;;;;;;;13.45;5.10;;;;;;;33.52;29.56;100770.22;5091158;28;20381;-60
2022/08/28 10:58:05;;;;;;;13.25;4.75;;;;;;;33.51;29.55;100765.84;5090863;28;20724;-60
2022/08/28 11:00:31;;;;;;;16.40;4.80;;;;;;;33.46;29.24;100757.78;5090901;28;20407;-61
2022/08/28 11:03:05;;;;;;;12.50;4.40;;;;;;;33.55;29.61;100768.75;5090930;28;20377;-62
2022/08/28 11:05:35;;;;;;;13.15;4.63;;;;;;;33.48;29.57;100759.06;5090565;28;20471;-61
2022/08/28 11:08:06;;;;;;;9.63;4.50;;;;;;;33.59;29.34;100762.28;5090892;28;20409;-61
2022/08/28 11:10:31;;;;;;;15.27;4.68;;;;;;;33.67;29.00;100763.44;5090359;28;20422;-61
2022/08/28 11:12:58;;;;;;;9.25;4.45;;;;;;;33.74;28.74;100769.25;5090953;28;20373;-62
2022/08/28 11:15:26;;;;;;;12.88;4.45;;;;;;;33.77;28.95;100767.81;5090983;28;20378;-60
2022/08/28 11:17:54;;;;;;;11.53;4.23;;;;;;;33.70;28.07;100763.59;5090353;28;20386;-62
2022/08/28 11:20:23;;;;;;;12.07;4.60;;;;;;;33.72;27.99;100763.28;5089979;28;20826;-61
2022/08/28 11:22:58;;;;;;;10.13;4.30;;;;;;;33.72;28.23;100755.03;5088969;28;20377;-61
2022/08/28 11:25:28;;;;;;;13.82;4.20;;;;;;;33.76;28.05;100750.47;5089180;28;20409;-61
2022/08/28 11:28:35;;;;;;;14.48;4.28;;;;;;;33.82;27.66;100740.94;5089993;28;20909;-61
2022/08/28 11:31:03;;;;;;;8.93;4.20;;;;;;;33.75;27.11;100731.59;4985966;28;20558;-63
2022/08/28 11:33:49;;;;;;;12.60;3.90;;;;;;;33.79;27.04;100736.09;5074871;28;20450;-60
2022/08/28 11:36:20;;;;;;;9.23;3.80;;;;;;;33.82;27.31;100740.16;5089266;28;20381;-62
2022/08/28 11:38:54;;;;;;;13.18;4.22;;;;;;;33.86;26.90;100743.84;5090073;28;20957;-61
2022/08/28 11:41:35;;;;;;;10.48;4.35;;;;;;;33.84;27.22;100732.38;5090190;28;20389;-60
2022/08/28 11:44:12;;;;;;;14.57;4.47;;;;;;;33.81;27.26;100731.06;5089682;28;20526;-61
2022/08/28 11:46:40;;;;;;;9.02;3.95;;;;;;;33.87;27.51;100724.28;5090262;28;20388;-61
2022/08/28 11:49:30;;;;;;;13.32;4.10;;;;;;;33.94;26.96;100717.44;5090171;28;20408;-60
2022/08/28 11:52:24;;;;;;;9.80;4.10;;;;;;;33.93;26.63;100719.41;5090323;28;20385;-60
2022/08/28 11:55:28;;;;;;;10.45;3.60;;;;;;;33.85;26.02;100715.56;5090005;28;20782;-61
2022/08/28 11:58:16;;;;;;;11.40;4.00;;;;;;;33.82;26.03;100718.16;5089945;28;20771;-61